createdAt,value
2018-02-09T06:14:08.829Z,3
2018-02-09T06:19:39.173Z,7
2018-02-09T06:22:39.351Z,10
2018-02-09T06:24:39.512Z,13
2018-02-09T06:26:09.800Z,17
2018-02-09T06:27:39.897Z,20
2018-02-09T06:28:39.893Z,23
2018-02-09T06:29:39.999Z,27
2018-02-09T06:30:40.125Z,30
2018-02-09T06:31:10.082Z,33
2018-02-09T06:32:10.195Z,37
2018-02-09T06:32:40.178Z,40
2018-02-09T06:33:10.178Z,43
2018-02-09T06:34:10.263Z,47
2018-02-09T06:34:40.283Z,50
2018-02-09T06:35:10.304Z,53
2018-02-09T06:35:40.346Z,57
2018-02-09T06:36:10.444Z,60
2018-02-09T06:36:40.375Z,63
2018-02-09T06:37:10.488Z,70
2018-02-09T06:37:40.458Z,73
2018-02-09T06:38:10.498Z,77
2018-02-09T06:38:40.513Z,80
2018-02-09T06:39:10.601Z,87
2018-02-09T06:39:40.570Z,90
2018-02-09T06:40:10.602Z,93
2018-02-09T06:40:40.633Z,100
2018-02-09T06:41:10.711Z,103
2018-02-09T06:41:40.698Z,110
2018-02-09T06:42:10.736Z,117
2018-02-09T06:42:40.796Z,120
2018-02-09T06:43:10.802Z,127
2018-02-09T06:43:40.810Z,133
2018-02-09T06:44:10.896Z,140
2018-02-09T06:44:40.863Z,147
2018-02-09T06:45:10.913Z,153
2018-02-09T06:45:41.019Z,160
2018-02-09T06:46:11.041Z,167
2018-02-09T06:46:41.014Z,173
2018-02-09T06:47:11.108Z,180
2018-02-09T06:47:41.048Z,187
2018-02-09T06:48:11.134Z,193
2018-02-09T06:48:41.106Z,200
2018-02-09T06:49:11.219Z,210
2018-02-09T06:49:41.206Z,213
2018-02-09T06:50:11.253Z,220
2018-02-09T06:50:41.277Z,230
2018-02-09T06:51:11.382Z,237
2018-02-09T06:51:41.340Z,247
2018-02-09T06:52:11.358Z,257
2018-02-09T06:52:41.414Z,263
2018-02-09T06:53:11.450Z,273
2018-02-09T06:53:41.499Z,283
2018-02-09T06:54:11.491Z,290
2018-02-09T06:54:41.529Z,300
2018-02-09T06:55:11.588Z,310
2018-02-09T06:55:41.565Z,320
2018-02-09T06:56:11.669Z,330
2018-02-09T06:56:41.643Z,343
2018-02-09T06:57:11.645Z,353
2018-02-09T06:57:41.724Z,367
2018-02-09T06:58:11.732Z,377
2018-02-09T06:58:41.734Z,390
2018-02-09T06:59:11.777Z,403
2018-02-09T06:59:41.821Z,413
2018-02-09T07:00:11.869Z,427
2018-02-09T07:00:41.852Z,437
2018-02-09T07:01:11.903Z,450
2018-02-09T07:01:41.899Z,463
2018-02-09T07:02:11.954Z,477
2018-02-09T07:02:41.972Z,490
2018-02-09T07:03:12.019Z,503
2018-02-09T07:03:42.043Z,517
2018-02-09T07:04:12.082Z,530
2018-02-09T07:04:42.169Z,547
2018-02-09T07:05:12.194Z,560
2018-02-09T07:05:42.184Z,577
2018-02-09T07:06:12.252Z,590
2018-02-09T07:06:42.274Z,607
2018-02-09T07:07:12.319Z,620
2018-02-09T07:07:42.326Z,637
2018-02-09T07:08:12.329Z,650
2018-02-09T07:08:42.352Z,667
2018-02-09T07:09:12.421Z,683
2018-02-09T07:09:42.491Z,697
2018-02-09T07:10:12.476Z,713
2018-02-09T07:10:42.494Z,730
2018-02-09T07:11:12.612Z,750
2018-02-09T07:11:42.521Z,767
2018-02-09T07:12:12.612Z,783
2018-02-09T07:12:42.600Z,800
2018-02-09T07:13:12.655Z,817
2018-02-09T07:13:42.639Z,833
2018-02-09T07:14:12.722Z,853
2018-02-09T07:14:42.773Z,870
2018-02-09T07:15:12.856Z,887
2018-02-09T07:15:42.803Z,907
2018-02-09T07:16:12.853Z,927
2018-02-09T07:16:42.863Z,947
2018-02-09T07:17:12.912Z,967
2018-02-09T07:17:42.910Z,987
2018-02-09T07:18:12.965Z,1007
2018-02-09T07:18:42.994Z,1023
2018-02-09T07:19:13.029Z,1043
2018-02-09T07:19:43.068Z,1063
2018-02-09T07:20:13.093Z,1080
2018-02-09T07:20:43.152Z,1100
2018-02-09T07:21:13.225Z,1120
2018-02-09T07:21:43.202Z,1143
2018-02-09T07:22:13.243Z,1160
2018-02-09T07:22:43.377Z,1183
2018-02-09T07:23:13.306Z,1203
2018-02-09T07:23:43.281Z,1227
2018-02-09T07:24:13.303Z,1250
2018-02-09T07:24:43.345Z,1267
2018-02-09T07:25:13.406Z,1283
2018-02-09T07:25:43.381Z,1307
2018-02-09T07:26:13.544Z,1327
2018-02-09T07:26:43.481Z,1347
2018-02-09T07:27:13.511Z,1370
2018-02-09T07:27:43.551Z,1393
2018-02-09T07:28:13.593Z,1417
2018-02-09T07:28:43.565Z,1440
2018-02-09T07:29:13.615Z,1463
2018-02-09T07:29:43.617Z,1487
2018-02-09T07:30:13.720Z,1507
2018-02-09T07:30:43.728Z,1530
2018-02-09T07:31:13.820Z,1550
2018-02-09T07:31:43.751Z,1573
2018-02-09T07:32:13.823Z,1597
2018-02-09T07:32:43.876Z,1620
2018-02-09T07:33:13.902Z,1647
2018-02-09T07:33:43.891Z,1670
2018-02-09T07:34:13.963Z,1693
2018-02-09T07:34:43.955Z,1717
2018-02-09T07:35:13.980Z,1740
2018-02-09T07:35:43.991Z,1770
2018-02-09T07:36:14.104Z,1860
2018-02-09T07:36:44.080Z,2080
2018-02-09T07:37:14.172Z,2347
2018-02-09T07:37:44.162Z,2567
2018-02-09T07:38:14.175Z,2680
2018-02-09T07:38:44.175Z,2717
2018-02-09T07:39:14.270Z,2770
2018-02-09T07:39:44.229Z,2830
2018-02-09T07:40:14.318Z,2910
2018-02-09T07:40:44.326Z,2973
2018-02-09T07:41:14.392Z,3023
2018-02-09T07:41:44.393Z,3037
2018-02-09T07:42:14.450Z,3077
2018-02-09T07:42:44.429Z,3133
2018-02-09T07:43:14.536Z,3207
2018-02-09T07:43:44.538Z,3257
2018-02-09T07:44:14.537Z,3317
2018-02-09T07:44:44.553Z,3373
2018-02-09T07:45:14.885Z,3427
2018-02-09T07:45:44.644Z,3477
2018-02-09T07:46:14.759Z,3533
2018-02-09T07:46:44.669Z,3600
2018-02-09T07:47:14.723Z,3630
2018-02-09T07:47:44.800Z,3663
2018-02-09T07:48:14.777Z,3723
2018-02-09T07:48:44.791Z,3797
2018-02-09T07:49:14.867Z,3847
2018-02-09T07:49:44.856Z,3890
2018-02-09T07:50:14.925Z,3940
2018-02-09T07:50:44.917Z,4010
2018-02-09T07:51:15.026Z,4070
2018-02-09T07:51:44.982Z,4090
2018-02-09T07:52:15.070Z,4110
2018-02-09T07:52:45.049Z,4193
2018-02-09T07:53:15.136Z,4253
2018-02-09T07:53:45.116Z,4297
2018-02-09T07:54:15.136Z,4360
2018-02-09T07:54:45.210Z,4333
2018-02-09T07:55:15.211Z,4363
2018-02-09T07:55:45.222Z,4467
2018-02-09T07:56:15.356Z,4553
2018-02-09T07:56:45.324Z,4637
2018-02-09T07:57:15.370Z,4687
2018-02-09T07:57:45.415Z,4713
2018-02-09T07:58:15.416Z,4753
2018-02-09T07:58:45.450Z,4820
2018-02-09T07:59:15.530Z,4897
2018-02-09T07:59:45.506Z,4987
2018-02-09T08:00:15.612Z,5083
2018-02-09T08:00:45.578Z,5130
2018-02-09T08:01:15.701Z,5183
2018-02-09T08:01:45.642Z,5273
2018-02-09T08:02:15.683Z,5373
2018-02-09T08:02:45.703Z,5490
2018-02-09T08:03:15.720Z,5587
2018-02-09T08:03:45.750Z,5673
2018-02-09T08:04:15.793Z,5743
2018-02-09T08:04:45.814Z,5787
2018-02-09T08:05:15.871Z,5837
2018-02-09T08:05:45.829Z,5923
2018-02-09T08:06:16.209Z,6027
2018-02-09T08:06:45.889Z,6093
2018-02-09T08:07:15.982Z,6150
2018-02-09T08:07:46.037Z,6190
2018-02-09T08:08:16.035Z,6270
2018-02-09T08:08:46.070Z,6387
2018-02-09T08:09:16.061Z,6480
2018-02-09T08:09:46.137Z,6553
2018-02-09T08:10:16.153Z,6590
2018-02-09T08:10:46.185Z,6650
2018-02-09T08:11:16.240Z,6697
2018-02-09T08:11:46.252Z,6747
2018-02-09T08:12:16.309Z,6827
2018-02-09T08:12:46.308Z,6983
2018-02-09T08:13:16.344Z,7073
2018-02-09T08:13:46.362Z,7127
2018-02-09T08:14:16.461Z,7197
2018-02-09T08:14:46.472Z,7250
2018-02-09T08:15:46.482Z,7290
2018-02-09T08:16:16.548Z,7333
2018-02-09T08:16:46.535Z,7350
2018-02-09T08:17:16.683Z,7360
2018-02-09T08:17:46.631Z,7453
2018-02-09T08:18:16.640Z,7553
2018-02-09T08:18:46.666Z,7640
2018-02-09T08:19:16.674Z,7670
2018-02-09T08:19:46.741Z,7667
2018-02-09T08:20:16.762Z,7740
2018-02-09T08:20:46.747Z,7833
2018-02-09T08:21:16.835Z,7920
2018-02-09T08:21:46.822Z,7910
2018-02-09T08:22:17.144Z,7973
2018-02-09T08:22:46.925Z,8083
2018-02-09T08:23:16.926Z,8087
2018-02-09T08:23:46.929Z,8057
2018-02-09T08:24:47.002Z,8110
2018-02-09T08:25:17.071Z,8107
2018-02-09T08:25:47.061Z,8197
2018-02-09T08:26:17.167Z,8297
2018-02-09T08:26:47.115Z,8410
2018-02-09T08:27:17.261Z,8480
2018-02-09T08:27:47.445Z,8583
2018-02-09T08:28:47.274Z,8687
2018-02-09T08:29:17.309Z,8803
2018-02-09T08:29:47.330Z,8933
2018-02-09T08:30:17.413Z,9033
2018-02-09T08:30:47.419Z,9120
2018-02-09T08:31:17.474Z,9250
2018-02-09T08:31:47.506Z,9293
2018-02-09T08:32:17.546Z,9283
2018-02-09T08:32:47.513Z,9297
2018-02-09T08:33:17.585Z,9390
2018-02-09T08:33:47.592Z,9490
2018-02-09T08:34:17.609Z,9537
2018-02-09T08:34:47.695Z,9577
2018-02-09T08:35:17.675Z,9627
2018-02-09T08:35:47.727Z,9713
2018-02-09T08:36:17.751Z,9793
2018-02-09T08:36:47.736Z,9787
2018-02-09T08:37:17.831Z,9920
2018-02-09T08:37:47.865Z,9990
2018-02-09T08:38:17.844Z,10133
2018-02-09T08:38:47.860Z,10240
2018-02-09T08:39:17.926Z,10277
2018-02-09T08:39:47.929Z,10387
2018-02-09T08:40:17.977Z,10560
2018-02-09T08:40:48.069Z,10617
2018-02-09T08:41:18.028Z,10720
2018-02-09T08:41:48.051Z,10757
2018-02-09T08:42:18.129Z,10803
2018-02-09T08:42:48.164Z,10740
2018-02-09T08:43:18.151Z,10770
2018-02-09T08:43:48.200Z,10773
2018-02-09T08:44:18.265Z,10873
2018-02-09T08:44:48.235Z,10903
2018-02-09T08:45:18.340Z,10940
2018-02-09T08:45:48.281Z,11083
2018-02-09T08:46:18.413Z,11237
2018-02-09T08:46:48.397Z,11310
2018-02-09T08:47:18.450Z,11410
2018-02-09T08:47:48.525Z,11577
2018-02-09T08:48:18.495Z,11603
2018-02-09T08:48:48.569Z,11697
2018-02-09T08:49:18.550Z,11793
2018-02-09T08:49:48.830Z,11930
2018-02-09T08:50:18.600Z,11970
2018-02-09T08:50:48.642Z,11973
2018-02-09T08:51:18.661Z,11937
2018-02-09T08:51:48.732Z,11990
2018-02-09T08:52:18.736Z,12023
2018-02-09T08:52:48.842Z,12190
2018-02-09T08:53:18.848Z,12400
2018-02-09T08:53:48.829Z,12577
2018-02-09T08:54:18.905Z,12797
2018-02-09T08:54:48.931Z,12730
2018-02-09T08:55:18.935Z,12653
2018-02-09T08:55:48.961Z,12667
2018-02-09T08:56:18.959Z,12550
2018-02-09T08:56:49.049Z,12507
2018-02-09T08:57:19.063Z,12840
2018-02-09T08:57:49.113Z,13100
2018-02-09T08:58:19.098Z,13050
2018-02-09T08:58:49.228Z,12990
2018-02-09T08:59:19.169Z,12967
2018-02-09T08:59:49.179Z,13003
2018-02-09T09:00:19.244Z,13130
2018-02-09T09:00:49.265Z,13120
2018-02-09T09:01:19.289Z,12893
2018-02-09T09:01:49.276Z,12817
2018-02-09T09:02:19.325Z,13153
2018-02-09T09:02:49.432Z,13257
2018-02-09T09:03:19.408Z,13363
2018-02-09T09:03:49.411Z,13433
2018-02-09T09:04:19.493Z,13380
2018-02-09T09:04:49.483Z,13330
2018-02-09T09:05:19.585Z,13303
2018-02-09T09:05:49.597Z,13463
2018-02-09T09:06:19.578Z,13727
2018-02-09T09:06:49.658Z,13177
2018-02-09T09:07:19.627Z,13153
2018-02-09T09:07:49.725Z,13020
2018-02-09T09:08:19.741Z,13270
2018-02-09T09:08:49.738Z,13817
2018-02-09T09:09:19.779Z,13617
2018-02-09T09:09:49.765Z,13573
2018-02-09T09:10:19.821Z,13807
2018-02-09T09:10:49.843Z,13953
2018-02-09T09:11:19.875Z,13910
2018-02-09T09:11:49.897Z,13963
2018-02-09T09:12:19.956Z,14193
2018-02-09T09:12:50.022Z,14117
2018-02-09T09:13:19.996Z,14027
2018-02-09T09:13:50.017Z,14103
2018-02-09T09:14:20.123Z,13977
2018-02-09T09:14:50.093Z,13897
2018-02-09T09:15:20.128Z,13960
2018-02-09T09:15:50.152Z,13680
2018-02-09T09:16:20.221Z,13647
2018-02-09T09:16:50.238Z,13743
2018-02-09T09:17:20.250Z,14033
2018-02-09T09:17:50.342Z,14407
2018-02-09T09:18:20.303Z,14403
2018-02-09T09:18:50.372Z,14470
2018-02-09T09:19:20.427Z,14327
2018-02-09T09:19:50.389Z,14293
2018-02-09T09:20:20.469Z,14267
2018-02-09T09:20:50.508Z,14510
2018-02-09T09:21:20.511Z,14803
2018-02-09T09:21:50.551Z,15100
2018-02-09T09:22:20.588Z,15200
2018-02-09T09:22:50.667Z,15207
2018-02-09T09:23:20.601Z,15237
2018-02-09T09:23:50.687Z,15683
2018-02-09T09:24:20.676Z,15947
2018-02-09T09:24:50.677Z,15553
2018-02-09T09:25:20.819Z,15563
2018-02-09T09:25:50.748Z,15260
2018-02-09T09:26:20.790Z,15420
2018-02-09T09:26:50.863Z,15410
2018-02-09T09:27:20.870Z,15473
2018-02-09T09:27:50.880Z,15517
2018-02-09T09:28:20.926Z,15587
2018-02-09T09:28:50.934Z,15483
2018-02-09T09:29:21.040Z,15453
2018-02-09T09:29:50.997Z,15470
2018-02-09T09:30:21.114Z,15443
2018-02-09T09:30:51.055Z,15497
2018-02-09T09:31:21.140Z,15540
2018-02-09T09:31:51.373Z,15623
2018-02-09T09:32:21.157Z,15797
2018-02-09T09:32:51.178Z,15653
2018-02-09T09:33:21.284Z,15937
2018-02-09T09:33:51.276Z,15620
2018-02-09T09:34:21.324Z,15603
2018-02-09T09:34:51.318Z,15547
2018-02-09T09:35:21.398Z,15893
2018-02-09T09:35:51.398Z,15863
2018-02-09T09:36:21.453Z,15867
2018-02-09T09:36:51.483Z,15797
2018-02-09T09:37:21.528Z,16047
2018-02-09T09:37:51.555Z,15927
2018-02-09T09:38:21.552Z,15847
2018-02-09T09:38:51.681Z,15963
2018-02-09T09:39:21.653Z,16290
2018-02-09T09:39:51.604Z,15990
2018-02-09T09:40:21.699Z,15950
2018-02-09T09:40:51.724Z,16023
2018-02-09T09:41:21.713Z,16000
2018-02-09T09:41:51.788Z,15943
2018-02-09T09:42:21.805Z,16087
2018-02-09T09:42:51.849Z,15930
2018-02-09T09:43:21.918Z,15740
2018-02-09T09:43:51.890Z,15810
2018-02-09T09:44:21.946Z,15273
2018-02-09T09:44:51.948Z,15493
2018-02-09T09:45:22.056Z,15433
2018-02-09T09:45:51.972Z,15267
2018-02-09T09:46:22.061Z,15233
2018-02-09T09:46:52.073Z,15547
2018-02-09T09:47:22.121Z,15823
2018-02-09T09:47:52.148Z,15843
2018-02-09T09:48:22.141Z,16167
2018-02-09T09:48:52.203Z,16470
2018-02-09T09:49:22.297Z,16803
2018-02-09T09:49:52.257Z,16920
2018-02-09T09:50:22.430Z,16830
2018-02-09T09:50:52.318Z,16663
2018-02-09T09:51:22.389Z,16827
2018-02-09T09:51:52.391Z,16830
2018-02-09T09:52:22.462Z,16867
2018-02-09T09:52:52.435Z,16937
2018-02-09T09:53:22.478Z,16977
2018-02-09T09:53:52.494Z,17237
2018-02-09T09:54:22.545Z,17137
2018-02-09T09:54:52.600Z,16947
2018-02-09T09:55:22.648Z,16773
2018-02-09T09:55:52.594Z,16880
2018-02-09T09:56:22.674Z,16937
2018-02-09T09:56:52.685Z,16793
2018-02-09T09:57:22.896Z,16733
2018-02-09T09:58:22.775Z,16717
2018-02-09T09:58:52.806Z,16943
2018-02-09T09:59:22.819Z,16843
2018-02-09T09:59:52.858Z,16603
2018-02-09T10:00:22.938Z,16570
2018-02-09T10:00:52.892Z,16680
2018-02-09T10:01:22.989Z,16807
2018-02-09T10:01:54.136Z,16880
2018-02-09T10:02:23.013Z,16853
2018-02-09T10:02:53.020Z,16730
2018-02-09T10:03:23.126Z,17050
2018-02-09T10:03:53.083Z,17143
2018-02-09T10:04:23.135Z,16760
2018-02-09T10:04:53.178Z,16987
2018-02-09T10:05:23.242Z,17383
2018-02-09T10:05:53.275Z,17257
2018-02-09T10:06:23.321Z,17347
2018-02-09T10:06:53.283Z,17577
2018-02-09T10:07:23.369Z,17850
2018-02-09T10:07:53.360Z,17880
2018-02-09T10:08:23.407Z,18273
2018-02-09T10:08:53.396Z,18573
2018-02-09T10:09:23.479Z,18753
2018-02-09T10:09:53.486Z,18727
2018-02-09T10:10:23.613Z,18537
2018-02-09T10:10:53.529Z,18663
2018-02-09T10:11:23.558Z,18817
2018-02-09T10:11:53.613Z,18630
2018-02-09T10:12:23.739Z,18793
2018-02-09T10:12:53.652Z,18457
2018-02-09T10:13:23.678Z,18307
2018-02-09T10:13:53.767Z,18327
2018-02-09T10:14:23.762Z,18357
2018-02-09T10:14:53.754Z,18347
2018-02-09T10:15:53.827Z,18023
2018-02-09T10:16:23.870Z,18253
2018-02-09T10:16:53.884Z,18493
2018-02-09T10:17:23.949Z,18677
2018-02-09T10:17:53.955Z,18773
2018-02-09T10:18:23.997Z,19210
2018-02-09T10:18:54.001Z,19610
2018-02-09T10:19:24.058Z,19600
2018-02-09T10:19:54.060Z,19477
2018-02-09T10:20:24.115Z,19413
2018-02-09T10:20:54.149Z,19130
2018-02-09T10:21:24.176Z,19357
2018-02-09T10:21:54.245Z,19353
2018-02-09T10:22:24.268Z,19437
2018-02-09T10:22:54.258Z,19493
2018-02-09T10:23:24.354Z,19617
2018-02-09T10:23:54.351Z,19827
2018-02-09T10:24:24.394Z,19593
2018-02-09T10:24:54.390Z,19697
2018-02-09T10:25:24.453Z,19763
2018-02-09T10:25:54.485Z,19830
2018-02-09T10:26:24.508Z,19720
2018-02-09T10:26:54.514Z,19653
2018-02-09T10:27:24.598Z,19943
2018-02-09T10:28:24.642Z,19783
2018-02-09T10:28:54.668Z,19400
2018-02-09T10:29:24.758Z,19493
2018-02-09T10:29:54.728Z,19143
2018-02-09T10:30:24.789Z,19320
2018-02-09T10:30:54.782Z,19217
2018-02-09T10:31:24.827Z,18847
2018-02-09T10:31:54.864Z,19650
2018-02-09T10:32:24.894Z,19647
2018-02-09T10:32:54.910Z,19400
2018-02-09T10:33:24.963Z,19120
2018-02-09T10:33:54.981Z,19520
2018-02-09T10:34:25.043Z,19140
2018-02-09T10:34:55.044Z,19513
2018-02-09T10:35:25.080Z,20040
2018-02-09T10:35:55.136Z,20443
2018-02-09T10:36:25.195Z,20460
2018-02-09T10:36:55.150Z,20417
2018-02-09T10:37:25.285Z,20740
2018-02-09T10:37:55.204Z,20773
2018-02-09T10:38:25.258Z,20883
2018-02-09T10:38:55.290Z,20570
2018-02-09T10:39:25.326Z,20450
2018-02-09T10:39:55.369Z,20373
2018-02-09T10:40:25.392Z,20537
2018-02-09T10:40:55.401Z,20367
2018-02-09T10:41:25.446Z,20167
2018-02-09T10:41:55.472Z,20300
2018-02-09T10:42:25.492Z,20337
2018-02-09T10:42:55.523Z,19977
2018-02-09T10:43:25.551Z,19393
2018-02-09T10:43:55.551Z,19770
2018-02-09T10:44:25.648Z,20053
2018-02-09T10:44:55.758Z,20270
2018-02-09T10:45:25.677Z,20030
2018-02-09T10:45:55.667Z,19700
2018-02-09T10:46:25.754Z,19507
2018-02-09T10:46:55.763Z,19320
2018-02-09T10:47:25.781Z,18850
2018-02-09T10:47:55.810Z,19497
2018-02-09T10:48:25.830Z,20320
2018-02-09T10:48:55.891Z,20657
2018-02-09T10:49:55.911Z,20603
2018-02-09T10:50:25.975Z,20437
2018-02-09T10:50:55.981Z,20230
2018-02-09T10:51:26.053Z,20750
2018-02-09T10:51:56.052Z,20863
2018-02-09T10:52:26.131Z,20813
2018-02-09T10:52:56.104Z,20510
2018-02-09T10:53:26.151Z,19727
2018-02-09T10:53:56.175Z,19483
2018-02-09T10:54:26.242Z,19273
2018-02-09T10:54:56.220Z,19240
2018-02-09T10:55:26.274Z,19593
2018-02-09T10:55:56.282Z,20033
2018-02-09T10:56:26.385Z,19857
2018-02-09T10:56:56.387Z,19677
2018-02-09T10:57:26.713Z,19493
2018-02-09T10:57:56.442Z,19880
2018-02-09T10:58:26.479Z,20003
2018-02-09T10:58:56.501Z,19627
2018-02-09T10:59:26.547Z,18957
2018-02-09T10:59:56.568Z,18727
2018-02-09T11:00:26.585Z,19190
2018-02-09T11:00:56.632Z,19540
2018-02-09T11:01:26.650Z,19530
2018-02-09T11:01:56.685Z,20500
2018-02-09T11:02:26.740Z,20300
2018-02-09T11:02:56.741Z,20063
2018-02-09T11:03:26.774Z,19553
2018-02-09T11:03:56.804Z,19660
2018-02-09T11:04:26.834Z,19863
2018-02-09T11:04:56.837Z,20383
2018-02-09T11:05:26.891Z,19757
2018-02-09T11:05:56.907Z,19620
2018-02-09T11:06:27.079Z,19110
2018-02-09T11:06:56.994Z,19763
2018-02-09T11:07:27.016Z,20650
2018-02-09T11:07:57.029Z,20943
2018-02-09T11:08:27.108Z,20753
2018-02-09T11:08:57.094Z,20207
2018-02-09T11:09:27.134Z,20117
2018-02-09T11:09:57.182Z,19853
2018-02-09T11:10:27.202Z,19660
2018-02-09T11:10:57.208Z,20367
2018-02-09T11:11:27.290Z,20403
2018-02-09T11:11:57.324Z,20803
2018-02-09T11:12:27.313Z,20823
2018-02-09T11:12:57.372Z,20570
2018-02-09T11:13:27.411Z,20487
2018-02-09T11:13:57.409Z,20393
2018-02-09T11:14:27.461Z,20450
2018-02-09T11:14:57.484Z,20523
2018-02-09T11:15:27.545Z,20483
2018-02-09T11:15:57.595Z,20177
2018-02-09T11:16:27.644Z,20150
2018-02-09T11:16:57.589Z,19953
2018-02-09T11:17:27.663Z,20263
2018-02-09T11:17:57.724Z,19523
2018-02-09T11:18:27.763Z,20370
2018-02-09T11:18:57.739Z,20187
2018-02-09T11:19:27.791Z,20523
2018-02-09T11:19:57.812Z,20463
2018-02-09T11:20:27.891Z,20417
2018-02-09T11:20:57.884Z,20407
2018-02-09T11:21:27.917Z,20430
2018-02-09T11:21:57.960Z,20603
2018-02-09T11:22:27.991Z,20793
2018-02-09T11:22:58.011Z,20850
2018-02-09T11:23:28.083Z,20903
2018-02-09T11:23:58.052Z,20733
2018-02-09T11:24:28.084Z,20987
2018-02-09T11:24:58.130Z,20773
2018-02-09T11:25:28.204Z,21200
2018-02-09T11:25:58.164Z,21280
2018-02-09T11:26:28.225Z,20910
2018-02-09T11:26:58.199Z,20977
2018-02-09T11:27:28.302Z,20570
2018-02-09T11:27:58.325Z,20750
2018-02-09T11:28:58.367Z,20983
2018-02-09T11:29:28.409Z,21117
2018-02-09T11:29:58.423Z,21123
2018-02-09T11:30:28.454Z,20373
2018-02-09T11:30:58.469Z,20283
2018-02-09T11:31:28.597Z,20277
2018-02-09T11:31:58.529Z,21370
2018-02-09T11:32:28.560Z,21393
2018-02-09T11:32:58.596Z,20950
2018-02-09T11:33:28.632Z,20707
2018-02-09T11:33:58.652Z,20757
2018-02-09T11:34:28.664Z,21180
2018-02-09T11:34:58.712Z,20933
2018-02-09T11:35:28.734Z,21267
2018-02-09T11:35:58.740Z,21007
2018-02-09T11:36:28.797Z,21303
2018-02-09T11:36:58.812Z,21643
2018-02-09T11:37:28.886Z,21657
2018-02-09T11:37:58.874Z,21363
2018-02-09T11:38:28.926Z,21073
2018-02-09T11:38:58.928Z,21410
2018-02-09T11:39:28.998Z,21260
2018-02-09T11:40:29.087Z,21017
2018-02-09T11:40:59.073Z,21537
2018-02-09T11:41:29.130Z,21410
2018-02-09T11:41:59.140Z,21807
2018-02-09T11:42:29.164Z,22203
2018-02-09T11:42:59.194Z,21610
2018-02-09T11:43:29.291Z,21077
2018-02-09T11:43:59.265Z,20807
2018-02-09T11:44:29.928Z,20970
2018-02-09T11:44:59.370Z,20867
2018-02-09T11:45:29.444Z,20437
2018-02-09T11:45:59.381Z,20690
2018-02-09T11:46:29.477Z,20590
2018-02-09T11:46:59.448Z,20403
2018-02-09T11:47:29.506Z,20767
2018-02-09T11:47:59.510Z,21303
2018-02-09T11:48:29.567Z,21580
2018-02-09T11:48:59.595Z,21077
2018-02-09T11:49:29.652Z,21297
2018-02-09T11:49:59.624Z,21120
2018-02-09T11:50:29.667Z,20457
2018-02-09T11:50:59.687Z,20837
2018-02-09T11:51:29.839Z,20680
2018-02-09T11:51:59.733Z,20993
2018-02-09T11:52:29.805Z,20760
2018-02-09T11:52:59.818Z,20490
2018-02-09T11:53:29.846Z,20483
2018-02-09T11:53:59.858Z,20143
2018-02-09T11:54:29.919Z,20097
2018-02-09T11:54:59.937Z,20163
2018-02-09T11:55:29.996Z,20183
2018-02-09T11:55:59.984Z,20323
2018-02-09T11:56:30.089Z,20360
2018-02-09T11:57:00.048Z,20500
2018-02-09T11:57:30.089Z,20043
2018-02-09T11:58:00.135Z,19777
2018-02-09T11:58:30.141Z,19660
2018-02-09T11:59:00.164Z,19467
2018-02-09T11:59:30.251Z,19240
2018-02-09T12:00:00.998Z,19630
2018-02-09T12:00:30.298Z,19723
2018-02-09T12:01:00.615Z,19590
2018-02-09T12:01:30.429Z,16980
2018-02-09T12:02:01.031Z,14453
2018-02-09T12:02:30.426Z,17803
2018-02-09T12:03:00.808Z,19277
2018-02-09T12:03:30.483Z,19927
2018-02-09T12:04:00.847Z,19950
2018-02-09T12:04:30.588Z,19243
2018-02-09T12:05:00.633Z,19617
2018-02-09T12:05:30.694Z,19600
2018-02-09T12:06:00.868Z,20027
2018-02-09T12:06:30.700Z,19843
2018-02-09T12:07:30.741Z,19820
2018-02-09T12:08:00.772Z,19907
2018-02-09T12:08:30.829Z,20083
2018-02-09T12:09:00.802Z,19860
2018-02-09T12:09:30.815Z,18987
2018-02-09T12:10:00.855Z,19377
2018-02-09T12:10:30.916Z,19537
2018-02-09T12:11:00.952Z,19817
2018-02-09T12:11:31.018Z,19880
2018-02-09T12:12:00.968Z,19930
2018-02-09T12:12:31.055Z,19793
2018-02-09T12:13:01.025Z,19947
2018-02-09T12:13:31.128Z,19543
2018-02-09T12:14:01.083Z,19660
2018-02-09T12:14:31.170Z,19700
2018-02-09T12:15:01.159Z,19380
2018-02-09T12:15:31.231Z,19643
2018-02-09T12:16:01.296Z,19753
2018-02-09T12:16:31.276Z,20220
2018-02-09T12:17:01.510Z,20147
2018-02-09T12:17:31.478Z,20353
2018-02-09T12:18:01.408Z,20010
2018-02-09T12:18:31.421Z,19457
2018-02-09T12:19:01.394Z,19470
2018-02-09T12:19:31.475Z,19210
2018-02-09T12:20:01.518Z,19540
2018-02-09T12:20:31.608Z,19327
2018-02-09T12:21:01.566Z,19827
2018-02-09T12:21:31.608Z,20027
2018-02-09T12:22:01.580Z,19770
2018-02-09T12:22:31.664Z,19203
2018-02-09T12:23:01.657Z,19537
2018-02-09T12:23:31.686Z,19157
2018-02-09T12:24:01.748Z,18860
2018-02-09T12:24:31.737Z,18857
2018-02-09T12:25:02.039Z,18487
2018-02-09T12:25:31.822Z,16210
2018-02-09T12:26:01.833Z,13863
2018-02-09T12:26:31.867Z,14527
2018-02-09T12:27:01.880Z,16377
2018-02-09T12:27:31.931Z,18097
2018-02-09T12:28:01.962Z,17843
2018-02-09T12:28:31.994Z,16707
2018-02-09T12:29:02.018Z,17447
2018-02-09T12:29:32.051Z,17507
2018-02-09T12:30:02.107Z,18180
2018-02-09T12:30:32.165Z,18800
2018-02-09T12:31:02.131Z,18267
2018-02-09T12:31:32.186Z,19427
2018-02-09T12:32:02.233Z,19683
2018-02-09T12:32:32.234Z,19933
2018-02-09T12:33:02.262Z,19987
2018-02-09T12:33:32.345Z,20460
2018-02-09T12:34:02.351Z,20610
2018-02-09T12:34:32.400Z,20033
2018-02-09T12:35:02.444Z,19780
2018-02-09T12:35:32.446Z,19843
2018-02-09T12:36:02.457Z,19380
2018-02-09T12:36:32.567Z,19133
2018-02-09T12:37:02.602Z,19297
2018-02-09T12:37:32.539Z,19310
2018-02-09T12:38:02.670Z,19280
2018-02-09T12:38:32.659Z,19680
2018-02-09T12:39:02.647Z,19943
2018-02-09T12:39:32.676Z,19627
2018-02-09T12:40:02.717Z,19137
2018-02-09T12:40:32.752Z,18807
2018-02-09T12:41:02.756Z,14580
2018-02-09T12:41:32.830Z,16400
2018-02-09T12:42:02.859Z,17183
2018-02-09T12:42:32.863Z,10897
2018-02-09T12:43:02.870Z,14823
2018-02-09T12:43:32.936Z,14693
2018-02-09T12:44:02.930Z,16627
2018-02-09T12:44:32.967Z,17563
2018-02-09T12:45:03.280Z,18380
2018-02-09T12:45:33.074Z,18970
2018-02-09T12:46:03.050Z,18720
2018-02-09T12:46:33.118Z,19583
2018-02-09T12:47:03.130Z,19427
2018-02-09T12:47:33.157Z,19490
2018-02-09T12:48:03.251Z,19193
2018-02-09T12:48:33.257Z,18980
2018-02-09T12:49:03.250Z,19040
2018-02-09T12:49:33.336Z,18070
2018-02-09T12:50:03.358Z,17357
2018-02-09T12:50:33.377Z,16417
2018-02-09T12:51:03.403Z,15870
2018-02-09T12:51:33.472Z,14763
2018-02-09T12:52:03.508Z,14263
2018-02-09T12:52:33.500Z,16067
2018-02-09T12:53:03.576Z,16570
2018-02-09T12:53:33.574Z,15113
2018-02-09T12:54:03.595Z,15590
2018-02-09T12:54:33.632Z,14273
2018-02-09T12:55:03.682Z,13583
2018-02-09T12:55:33.647Z,15800
2018-02-09T12:56:03.720Z,14670
2018-02-09T12:56:33.755Z,14047
2018-02-09T12:57:03.782Z,15737
2018-02-09T12:57:33.817Z,16843
2018-02-09T12:58:03.895Z,17970
2018-02-09T12:58:33.883Z,18630
2018-02-09T12:59:03.904Z,18920
2018-02-09T12:59:33.928Z,18703
2018-02-09T13:00:04.072Z,18253
2018-02-09T13:00:33.963Z,17787
2018-02-09T13:01:04.019Z,17193
2018-02-09T13:01:34.033Z,13447
2018-02-09T13:02:04.073Z,15733
2018-02-09T13:02:34.120Z,15813
2018-02-09T13:03:04.228Z,16647
2018-02-09T13:03:34.183Z,17403
2018-02-09T13:04:04.211Z,16990
2018-02-09T13:04:34.252Z,14290
2018-02-09T13:05:04.352Z,15927
2018-02-09T13:05:34.361Z,16550